Time;durP1;ratioP1;P1;durP2;ratioP2;P2;SDS_P1;SDS_P2;PMS_P1;PMS_P2;Temp;Humidity;BMP_temperature;BMP_pressure;BME280_temperature;BME280_humidity;BME280_pressure;Samples;Min_cycle;Max_cycle;Signal;HPM_P1;HPM_P2
2022/10/28 00:01:09;;;;;;;16.95;7.07;;;;;;;16.37;82.63;101495.81;3610078;39;20300;-60
2022/10/28 00:03:45;;;;;;;15.90;6.95;;;;;;;16.31;83.04;101503.56;3608225;39;20065;-61
2022/10/28 00:06:21;;;;;;;16.13;7.57;;;;;;;16.21;83.16;101490.66;3609070;39;20095;-60
2022/10/28 00:08:47;;;;;;;13.27;6.88;;;;;;;16.23;83.19;101493.25;3610832;39;20354;-60
2022/10/28 00:11:14;;;;;;;19.42;7.68;;;;;;;16.17;82.93;101505.44;3611714;39;20058;-61
2022/10/28 00:13:42;;;;;;;13.52;7.47;;;;;;;16.06;83.27;101486.38;3609065;39;20054;-60
2022/10/28 00:16:19;;;;;;;12.57;6.97;;;;;;;16.07;83.58;101492.66;3610849;39;20400;-60
2022/10/28 00:18:46;;;;;;;12.25;7.07;;;;;;;16.06;83.04;101499.09;3609047;39;20086;-60
2022/10/28 00:21:23;;;;;;;13.05;7.38;;;;;;;16.00;83.67;101498.56;3609444;39;20054;-60
2022/10/28 00:23:48;;;;;;;12.00;7.25;;;;;;;15.97;83.56;101493.34;3610428;39;20065;-60
2022/10/28 00:26:18;;;;;;;15.60;8.00;;;;;;;15.92;83.68;101489.25;3608251;39;20063;-60
2022/10/28 00:28:54;;;;;;;14.18;7.53;;;;;;;15.88;84.63;101487.75;3610375;39;20128;-60
2022/10/28 00:31:23;;;;;;;12.40;6.72;;;;;;;15.82;84.00;101482.78;3608304;39;20047;-61
2022/10/28 00:33:50;;;;;;;16.80;7.53;;;;;;;15.79;83.76;101497.41;3609719;39;20370;-60
2022/10/28 00:36:26;;;;;;;14.93;7.25;;;;;;;15.76;83.73;101484.06;3608537;39;20127;-60
2022/10/28 00:38:55;;;;;;;12.27;7.85;;;;;;;15.75;84.32;101490.50;3609301;39;20058;-60
2022/10/28 00:41:35;;;;;;;12.70;7.35;;;;;;;15.69;84.79;101488.22;3606205;39;20062;-59
2022/10/28 00:45:11;;;;;;;15.35;7.55;;;;;;;15.63;85.09;101477.78;3610201;39;20115;-61
2022/10/28 00:47:54;;;;;;;15.20;7.82;;;;;;;15.58;85.49;101485.41;3588368;39;20062;-60
2022/10/28 00:50:34;;;;;;;14.45;7.40;;;;;;;15.52;85.00;101479.44;3608765;39;20057;-60
2022/10/28 00:53:08;;;;;;;10.90;7.25;;;;;;;15.48;85.38;101475.22;3609266;39;20394;-61
2022/10/28 00:55:36;;;;;;;14.27;7.70;;;;;;;15.41;84.85;101465.78;3608732;39;20054;-60
2022/10/28 00:58:06;;;;;;;12.80;7.32;;;;;;;15.39;85.01;101464.19;3607371;39;20051;-60
2022/10/28 01:00:32;;;;;;;10.38;7.10;;;;;;;15.35;84.89;101460.84;3607777;39;20058;-59
2022/10/28 01:02:58;;;;;;;14.75;7.57;;;;;;;15.33;85.74;101460.06;3610903;39;20047;-60
2022/10/28 01:05:31;;;;;;;13.65;8.00;;;;;;;15.30;85.42;101450.31;3607438;39;20054;-59
2022/10/28 01:08:00;;;;;;;10.27;7.20;;;;;;;15.30;85.28;101444.03;3606894;39;20051;-61
2022/10/28 01:10:57;;;;;;;18.98;7.97;;;;;;;15.25;84.88;101440.78;3608125;39;20070;-60
2022/10/28 01:14:13;;;;;;;14.13;7.60;;;;;;;15.20;85.61;101442.97;3610452;39;20050;-60
2022/10/28 01:17:08;;;;;;;8.95;7.07;;;;;;;15.14;85.58;101449.69;3605349;39;20050;-58
2022/10/28 01:19:58;;;;;;;12.65;7.10;;;;;;;15.08;85.19;101445.56;3608734;39;20302;-60
2022/10/28 01:23:01;;;;;;;13.55;7.53;;;;;;;15.09;85.99;101446.44;3598219;39;20049;-59
2022/10/28 01:26:11;;;;;;;10.98;7.38;;;;;;;15.05;85.08;101451.19;3608353;39;20242;-60
2022/10/28 01:29:16;;;;;;;12.80;7.32;;;;;;;15.00;85.13;101447.97;3608764;39;20058;-59
2022/10/28 01:32:04;;;;;;;10.57;7.47;;;;;;;15.00;84.67;101444.38;3607730;39;20341;-59
2022/10/28 01:34:33;;;;;;;14.00;7.43;;;;;;;14.98;84.40;101443.63;3609493;39;20050;-59
2022/10/28 01:37:17;;;;;;;11.40;6.70;;;;;;;14.96;85.23;101437.44;3610932;39;20417;-59
2022/10/28 01:39:54;;;;;;;11.80;6.97;;;;;;;14.95;85.37;101435.72;3609870;39;20098;-60
2022/10/28 01:42:41;;;;;;;13.63;7.40;;;;;;;14.92;85.43;101434.09;3609511;39;20053;-60
2022/10/28 01:45:33;;;;;;;12.70;7.68;;;;;;;14.89;85.77;101433.44;3609260;39;20063;-60
2022/10/28 01:48:14;;;;;;;17.15;6.80;;;;;;;14.82;85.92;101427.59;3608760;39;20179;-59
2022/10/28 01:50:58;;;;;;;14.82;6.82;;;;;;;14.83;85.48;101435.59;3605175;39;20062;-60
2022/10/28 01:53:34;;;;;;;11.98;7.55;;;;;;;14.80;85.38;101429.53;3609971;39;20115;-58
2022/10/28 01:56:09;;;;;;;12.50;6.75;;;;;;;14.78;85.30;101428.75;3609855;39;20058;-60
2022/10/28 01:58:39;;;;;;;13.30;6.82;;;;;;;14.75;84.58;101432.56;3608455;39;20341;-59
2022/10/28 02:01:09;;;;;;;12.30;6.78;;;;;;;14.54;84.50;101396.19;3609331;39;20150;-60
2022/10/28 02:03:35;;;;;;;13.40;6.55;;;;;;;14.56;84.12;101410.47;3605561;39;20066;-60
2022/10/28 02:06:13;;;;;;;13.25;7.30;;;;;;;14.56;84.22;101413.19;3603806;39;20047;-60
2022/10/28 02:09:04;;;;;;;14.52;6.18;;;;;;;14.65;84.40;101425.19;3610140;39;20063;-59
2022/10/28 02:12:05;;;;;;;14.10;6.53;;;;;;;14.61;84.19;101419.97;3609293;39;20058;-60
2022/10/28 02:15:22;;;;;;;10.77;6.22;;;;;;;14.60;84.34;101418.25;3609208;39;20398;-60
2022/10/28 02:18:25;;;;;;;14.93;5.93;;;;;;;14.57;84.35;101432.00;3607013;39;20047;-60
2022/10/28 02:20:55;;;;;;;11.65;6.40;;;;;;;14.58;84.42;101427.44;3608113;39;20116;-59
2022/10/28 02:23:56;;;;;;;16.08;9.73;;;;;;;14.58;84.92;101431.03;3606375;39;20067;-58
2022/10/28 02:26:37;;;;;;;14.32;7.40;;;;;;;14.63;85.75;101434.28;3610771;39;20051;-59
2022/10/28 02:29:32;;;;;;;13.75;7.95;;;;;;;14.67;85.81;101429.53;3608153;39;20112;-60
2022/10/28 02:32:13;;;;;;;12.38;7.78;;;;;;;14.71;85.53;101422.91;3608934;39;20127;-59
2022/10/28 02:34:46;;;;;;;11.90;7.47;;;;;;;14.72;85.44;101421.09;3608248;39;20071;-59
2022/10/28 02:37:20;;;;;;;;;;;;;;;14.77;85.39;101416.22;3607994;39;20059;-60
2022/10/28 02:39:54;;;;;;;12.65;7.38;;;;;;;14.80;85.32;101410.59;3609830;39;19943;-58
2022/10/28 02:42:30;;;;;;;;;;;;;;;14.81;85.37;101412.31;3610819;39;20054;-60
2022/10/28 02:45:14;;;;;;;16.67;6.68;;;;;;;14.92;85.09;101419.69;3611251;39;19987;-59
2022/10/28 02:47:52;;;;;;;11.65;6.25;;;;;;;14.99;85.30;101412.88;3608975;39;20125;-60
2022/10/28 02:50:29;;;;;;;10.65;5.57;;;;;;;15.02;84.50;101424.34;3611346;39;20063;-60
2022/10/28 02:53:01;;;;;;;10.98;5.15;;;;;;;15.09;84.32;101416.63;3610656;39;20128;-60
2022/10/28 02:55:40;;;;;;;10.23;5.07;;;;;;;15.12;83.78;101423.69;3611370;39;20051;-59
2022/10/28 02:58:07;;;;;;;9.50;4.85;;;;;;;15.15;83.78;101418.06;3608801;39;20043;-60
2022/10/28 03:00:32;;;;;;;10.80;5.00;;;;;;;15.18;83.20;101409.72;3611394;39;20057;-60
2022/10/28 03:02:58;;;;;;;9.40;4.50;;;;;;;15.18;83.16;101410.56;3610570;39;20389;-59
2022/10/28 03:05:24;;;;;;;14.18;5.20;;;;;;;15.20;82.86;101413.19;3609147;39;20128;-59
2022/10/28 03:07:49;;;;;;;8.85;4.60;;;;;;;14.66;82.10;101324.13;3610012;39;20078;-59
2022/10/28 03:10:15;;;;;;;8.70;4.80;;;;;;;15.19;82.63;101411.44;3609354;39;20063;-59
2022/10/28 03:12:41;;;;;;;10.77;4.82;;;;;;;15.19;82.49;101408.72;3609081;39;20102;-59
2022/10/28 03:15:07;;;;;;;11.40;4.90;;;;;;;15.20;82.59;101407.75;3608400;39;20463;-60
2022/10/28 03:17:33;;;;;;;16.02;5.22;;;;;;;15.13;83.06;101388.38;3611388;39;20053;-59
2022/10/28 03:19:58;;;;;;;9.40;4.68;;;;;;;15.23;83.22;101410.25;3608559;39;20066;-59
2022/10/28 03:22:24;;;;;;;12.30;4.93;;;;;;;15.26;82.56;101412.75;3609801;39;20073;-60
2022/10/28 03:24:50;;;;;;;10.27;4.90;;;;;;;15.26;82.86;101407.31;3608590;39;20057;-58
2022/10/28 03:27:15;;;;;;;14.75;4.80;;;;;;;15.18;82.61;101388.03;3609382;39;20058;-59
2022/10/28 03:29:41;;;;;;;13.13;5.28;;;;;;;15.33;82.24;101414.03;3609665;39;20085;-59
2022/10/28 03:32:06;;;;;;;11.50;4.88;;;;;;;15.39;82.07;101418.13;3609531;39;20070;-60
2022/10/28 03:34:32;;;;;;;10.00;5.13;;;;;;;15.43;82.21;101417.78;3610692;39;20047;-60
2022/10/28 03:36:57;;;;;;;9.52;5.05;;;;;;;15.44;81.46;101408.66;3611621;39;20058;-60
2022/10/28 03:39:23;;;;;;;17.15;8.82;;;;;;;15.47;81.98;101413.88;3612702;39;20073;-59
2022/10/28 03:41:49;;;;;;;18.15;7.13;;;;;;;15.50;82.30;101407.38;3611940;39;20054;-59
2022/10/28 03:44:14;;;;;;;11.63;5.47;;;;;;;15.57;82.50;101408.63;3611983;39;20054;-60
2022/10/28 03:46:40;;;;;;;14.23;4.50;;;;;;;15.65;81.42;101394.53;3613520;39;20051;-60
2022/10/28 03:49:05;;;;;;;14.20;4.40;;;;;;;15.72;81.70;101403.97;3609763;39;21308;-59
2022/10/28 03:51:31;;;;;;;12.52;4.90;;;;;;;15.79;81.19;101397.09;3612132;39;20377;-60
2022/10/28 03:53:57;;;;;;;13.02;4.97;;;;;;;15.84;80.97;101396.78;3610911;39;20059;-60
2022/10/28 03:56:22;;;;;;;15.35;4.72;;;;;;;15.90;80.01;101404.47;3609833;39;20054;-59
2022/10/28 03:58:48;;;;;;;15.18;4.47;;;;;;;15.96;79.62;101399.44;3611476;39;20054;-59
2022/10/28 04:01:14;;;;;;;13.18;4.60;;;;;;;16.06;79.16;101402.31;3612570;39;20604;-59
2022/10/28 04:03:39;;;;;;;9.30;4.57;;;;;;;16.16;79.08;101405.19;3613497;39;20059;-59
2022/10/28 04:06:05;;;;;;;10.60;4.53;;;;;;;16.20;78.38;101396.69;3610620;39;20067;-60
2022/10/28 04:08:31;;;;;;;9.48;4.90;;;;;;;16.26;78.67;101406.22;3610468;39;20059;-60
2022/10/28 04:10:57;;;;;;;10.75;4.25;;;;;;;16.30;78.11;101402.31;3609117;39;20051;-60
2022/10/28 04:13:23;;;;;;;11.68;4.72;;;;;;;16.30;77.70;101394.16;3607930;39;20494;-59
2022/10/28 04:15:48;;;;;;;12.45;3.92;;;;;;;16.31;77.78;101403.16;3608263;39;20055;-58
2022/10/28 04:18:14;;;;;;;10.07;4.22;;;;;;;16.34;77.26;101409.22;3610973;39;20425;-60
2022/10/28 04:20:40;;;;;;;12.55;4.43;;;;;;;16.34;77.51;101409.22;3609169;39;20054;-60
2022/10/28 04:23:06;;;;;;;10.65;4.20;;;;;;;16.40;77.46;101403.31;3610530;39;20066;-59
2022/10/28 04:25:31;;;;;;;10.45;5.72;;;;;;;16.41;77.79;101399.59;3610498;39;20270;-60
2022/10/28 04:27:57;;;;;;;10.65;5.25;;;;;;;16.45;77.06;101406.53;3608979;39;20047;-59
2022/10/28 04:30:23;;;;;;;12.27;5.20;;;;;;;16.44;76.73;101404.81;3608221;39;20058;-59
2022/10/28 04:32:49;;;;;;;12.57;5.30;;;;;;;16.42;77.03;101411.31;3610041;39;20058;-60
2022/10/28 04:35:15;;;;;;;9.80;4.60;;;;;;;16.38;77.59;101404.41;3608891;39;20381;-59
2022/10/28 04:37:40;;;;;;;7.85;4.07;;;;;;;16.35;77.35;101410.06;3609486;39;20377;-59
2022/10/28 04:40:08;;;;;;;12.68;4.90;;;;;;;16.29;77.18;101408.69;3605425;39;20077;-60
2022/10/28 04:42:34;;;;;;;9.75;4.78;;;;;;;16.19;76.91;101410.38;3609347;39;20096;-60
2022/10/28 04:45:00;;;;;;;10.52;4.78;;;;;;;16.15;77.78;101414.31;3608093;39;20063;-60
2022/10/28 04:47:25;;;;;;;10.05;4.57;;;;;;;16.07;78.67;101395.03;3610157;39;20055;-59
2022/10/28 04:49:51;;;;;;;9.55;4.18;;;;;;;16.09;78.15;101398.50;3610730;39;20054;-60
2022/10/28 04:52:17;;;;;;;8.73;4.47;;;;;;;16.10;78.72;101400.22;3614366;39;20128;-59
2022/10/28 04:54:42;;;;;;;10.02;4.40;;;;;;;16.08;78.54;101411.22;3611200;39;20066;-60
2022/10/28 04:57:08;;;;;;;7.85;4.43;;;;;;;15.76;77.78;101353.97;3608634;39;20072;-60
2022/10/28 04:59:34;;;;;;;13.90;5.05;;;;;;;15.91;78.21;101387.19;3598478;39;20059;-59
2022/10/28 05:02:00;;;;;;;9.82;4.85;;;;;;;15.97;78.76;101398.44;3607718;39;20108;-59
2022/10/28 05:04:25;;;;;;;10.57;4.60;;;;;;;15.94;78.84;101395.09;3610242;39;20058;-60
2022/10/28 05:06:51;;;;;;;9.27;4.25;;;;;;;15.95;78.31;101394.09;3609694;39;20047;-59
2022/10/28 05:09:16;;;;;;;8.77;4.82;;;;;;;15.96;79.15;101395.88;3611911;39;20305;-60
2022/10/28 05:11:42;;;;;;;11.50;5.05;;;;;;;15.97;78.08;101401.16;3611612;39;20059;-59
2022/10/28 05:14:07;;;;;;;11.82;4.80;;;;;;;15.99;78.19;101403.75;3611854;39;20066;-60
2022/10/28 05:16:33;;;;;;;15.20;4.95;;;;;;;16.01;78.15;101399.06;3607924;39;20062;-60
2022/10/28 05:18:59;;;;;;;12.45;4.50;;;;;;;16.05;78.13;101400.59;3608713;39;20055;-59
2022/10/28 05:21:24;;;;;;;14.95;4.82;;;;;;;16.08;77.66;101404.91;3608222;39;20363;-60
2022/10/28 05:23:50;;;;;;;12.13;4.25;;;;;;;16.12;78.20;101404.56;3608872;39;20393;-59
2022/10/28 05:26:16;;;;;;;14.50;5.05;;;;;;;16.16;77.55;101399.75;3609286;39;20452;-59
2022/10/28 05:28:42;;;;;;;10.75;4.68;;;;;;;16.16;77.89;101394.34;3608948;39;20063;-58
2022/10/28 05:31:08;;;;;;;12.68;4.60;;;;;;;15.97;77.72;101357.75;3606760;39;20381;-60
2022/10/28 05:33:34;;;;;;;12.88;4.72;;;;;;;16.17;77.37;101391.50;3603579;39;20059;-60
2022/10/28 05:36:00;;;;;;;12.70;4.75;;;;;;;16.19;77.00;101392.25;3606732;39;20397;-60
2022/10/28 05:38:26;;;;;;;14.52;4.90;;;;;;;16.21;77.33;101392.16;3608252;39;20052;-59
2022/10/28 05:40:52;;;;;;;14.20;4.85;;;;;;;16.19;77.74;101389.53;3606756;39;20070;-60
2022/10/28 05:43:18;;;;;;;8.10;4.07;;;;;;;16.16;77.16;101394.34;3611074;39;20351;-59
2022/10/28 05:45:43;;;;;;;13.68;4.55;;;;;;;16.05;77.61;101381.59;3611933;39;20046;-60
2022/10/28 05:48:09;;;;;;;8.75;4.60;;;;;;;16.04;77.18;101393.41;3598738;39;20051;-60
2022/10/28 05:50:35;;;;;;;11.18;4.80;;;;;;;15.95;77.75;101383.25;3606640;39;20425;-60
2022/10/28 05:53:00;;;;;;;13.00;5.07;;;;;;;15.97;77.77;101387.59;3611413;39;20132;-60
2022/10/28 05:55:28;;;;;;;12.18;5.00;;;;;;;15.91;77.43;101396.19;3611060;39;20047;-59
2022/10/28 05:57:55;;;;;;;11.82;4.85;;;;;;;15.86;78.24;101390.28;3609596;39;20120;-59
2022/10/28 06:00:25;;;;;;;16.02;5.07;;;;;;;15.82;78.75;101391.44;3610975;39;20120;-60
2022/10/28 06:02:51;;;;;;;10.30;4.75;;;;;;;15.79;78.50;101391.69;3609327;39;20051;-60
2022/10/28 06:05:16;;;;;;;12.93;4.93;;;;;;;15.74;78.18;101388.47;3610617;39;20355;-59
2022/10/28 06:07:42;;;;;;;12.02;4.70;;;;;;;15.60;78.78;101366.91;3606883;39;20059;-59
2022/10/28 06:10:10;;;;;;;14.95;5.07;;;;;;;15.72;78.93;101396.69;3598492;39;20075;-58
2022/10/28 06:12:37;;;;;;;12.13;5.30;;;;;;;15.72;79.69;101395.84;3608972;39;20055;-58
2022/10/28 06:15:03;;;;;;;10.50;5.13;;;;;;;15.70;79.74;101393.25;3613780;39;20059;-60
2022/10/28 06:17:30;;;;;;;10.55;5.47;;;;;;;15.75;79.10;101401.03;3610310;39;20143;-59
2022/10/28 06:19:55;;;;;;;14.00;5.05;;;;;;;15.81;78.99;101395.16;3611105;39;20050;-59
2022/10/28 06:22:22;;;;;;;11.68;5.50;;;;;;;15.81;79.18;101395.16;3611744;39;20346;-59
2022/10/28 06:24:47;;;;;;;14.15;5.53;;;;;;;15.83;78.47;101404.06;3612090;39;20154;-59
2022/10/28 06:27:13;;;;;;;11.95;4.97;;;;;;;15.82;79.33;101401.44;3608409;39;20062;-61
2022/10/28 06:29:38;;;;;;;14.55;6.22;;;;;;;15.84;79.54;101399.50;3613582;39;20050;-61
2022/10/28 06:32:04;;;;;;;11.23;5.40;;;;;;;15.84;79.14;101403.06;3613695;39;20636;-60
2022/10/28 06:34:30;;;;;;;12.05;5.38;;;;;;;15.87;78.87;101405.53;3612882;39;20054;-60
2022/10/28 06:36:55;;;;;;;14.13;5.50;;;;;;;15.88;78.71;101404.56;3614585;39;20290;-60
2022/10/28 06:39:21;;;;;;;13.05;5.30;;;;;;;15.89;79.21;101395.47;3612605;39;20051;-60
2022/10/28 06:41:46;;;;;;;17.23;5.72;;;;;;;15.92;79.54;101395.22;3612246;39;20042;-60
2022/10/28 06:44:12;;;;;;;12.65;5.57;;;;;;;15.96;78.75;101398.56;3612656;39;20059;-60
2022/10/28 06:46:37;;;;;;;16.35;5.63;;;;;;;15.98;78.47;101397.47;3613188;39;20497;-60
2022/10/28 06:49:03;;;;;;;11.45;5.05;;;;;;;16.00;79.22;101395.50;3611265;39;20078;-60
2022/10/28 06:51:31;;;;;;;19.55;6.20;;;;;;;16.04;78.15;101406.97;3608329;39;20058;-60
2022/10/28 06:53:57;;;;;;;12.73;5.60;;;;;;;16.06;78.37;101393.31;3611208;39;20063;-60
2022/10/28 06:56:23;;;;;;;13.05;5.47;;;;;;;16.11;79.00;101396.53;3608824;39;20039;-60
2022/10/28 06:58:50;;;;;;;11.32;5.20;;;;;;;16.15;77.71;101398.03;3611727;39;20393;-60
2022/10/28 07:01:16;;;;;;;12.73;5.68;;;;;;;16.09;78.15;101387.66;3610753;39;20051;-59
2022/10/28 07:03:41;;;;;;;14.00;5.60;;;;;;;16.20;78.47;101387.69;3610549;39;20062;-59
2022/10/28 07:06:07;;;;;;;14.52;5.55;;;;;;;16.19;78.55;101391.41;3611597;39;20063;-60
2022/10/28 07:08:32;;;;;;;16.00;5.32;;;;;;;16.23;77.73;101401.03;3608924;39;20340;-60
2022/10/28 07:10:59;;;;;;;13.25;5.35;;;;;;;16.27;78.20;101399.81;3609582;39;20068;-60
2022/10/28 07:13:26;;;;;;;11.07;4.57;;;;;;;16.35;78.37;101405.50;3614174;39;20055;-60
2022/10/28 07:15:58;;;;;;;15.95;5.32;;;;;;;16.43;78.36;101399.50;3613885;39;20042;-59
2022/10/28 07:18:28;;;;;;;13.98;5.07;;;;;;;16.53;77.58;101396.94;3614432;39;20385;-60
2022/10/28 07:20:58;;;;;;;12.43;5.28;;;;;;;16.62;77.61;101407.09;3613387;39;20046;-60
2022/10/28 07:23:24;;;;;;;12.60;5.70;;;;;;;16.72;76.53;101413.53;3611391;39;20397;-61
2022/10/28 07:25:55;;;;;;;13.65;5.45;;;;;;;16.75;76.41;101407.00;3610422;39;20065;-60
2022/10/28 07:28:24;;;;;;;12.75;4.70;;;;;;;16.99;75.74;101415.91;3617265;39;20058;-59
2022/10/28 07:30:50;;;;;;;15.23;5.60;;;;;;;17.09;76.00;101408.75;3611357;39;20055;-59
2022/10/28 07:33:16;;;;;;;12.68;4.82;;;;;;;17.24;75.34;101428.41;3611637;39;20409;-59
2022/10/28 07:35:43;;;;;;;15.43;5.13;;;;;;;17.36;74.28;101423.84;3604574;39;20119;-60
2022/10/28 07:38:09;;;;;;;14.80;4.47;;;;;;;17.48;73.80;101438.31;3614844;39;20051;-59
2022/10/28 07:40:35;;;;;;;15.55;5.10;;;;;;;17.59;74.31;101424.69;3617755;39;20085;-59
2022/10/28 07:43:00;;;;;;;10.75;4.70;;;;;;;17.75;73.61;101430.59;3611880;39;20089;-59
2022/10/28 07:45:26;;;;;;;11.15;4.63;;;;;;;17.89;73.09;101420.44;3613658;39;20055;-59
2022/10/28 07:47:52;;;;;;;11.77;4.55;;;;;;;17.88;71.88;101376.06;3608876;39;20057;-59
2022/10/28 07:50:17;;;;;;;16.55;4.65;;;;;;;18.31;71.51;101416.00;3610964;39;20055;-60
2022/10/28 07:52:43;;;;;;;13.63;4.85;;;;;;;18.46;70.78;101403.78;3613849;39;20054;-59
2022/10/28 07:55:10;;;;;;;14.00;4.97;;;;;;;18.62;69.39;101397.88;3612696;39;20059;-60
2022/10/28 07:57:36;;;;;;;8.63;4.30;;;;;;;18.75;69.40;101384.94;3614185;39;20094;-60
2022/10/28 08:00:05;;;;;;;8.60;4.13;;;;;;;19.01;69.05;101400.88;3613806;39;20310;-60
2022/10/28 08:02:31;;;;;;;11.43;4.80;;;;;;;19.20;68.70;101406.41;3613266;39;20373;-60
2022/10/28 08:04:56;;;;;;;13.13;4.45;;;;;;;19.44;67.45;101416.09;3610519;39;20051;-60
2022/10/28 08:07:22;;;;;;;13.68;4.75;;;;;;;19.60;67.38;101411.00;3614077;39;20057;-59
2022/10/28 08:09:47;;;;;;;11.98;4.60;;;;;;;19.79;66.24;101410.22;3616790;39;20051;-59
2022/10/28 08:12:14;;;;;;;17.45;4.53;;;;;;;19.96;65.68;101414.13;3613830;39;20039;-59
2022/10/28 08:14:40;;;;;;;13.27;4.35;;;;;;;20.09;65.33;101422.91;3613565;39;20107;-59
2022/10/28 08:17:06;;;;;;;11.75;3.97;;;;;;;20.18;64.34;101438.44;3612733;39;20050;-59
2022/10/28 08:19:32;;;;;;;13.20;4.40;;;;;;;20.29;64.38;101439.28;3612104;39;20123;-59
2022/10/28 08:21:57;;;;;;;10.05;3.97;;;;;;;20.25;64.09;101432.41;3612486;39;20100;-59
2022/10/28 08:24:23;;;;;;;12.00;4.85;;;;;;;20.27;64.59;101431.25;3614086;39;20077;-59
2022/10/28 08:26:49;;;;;;;11.43;4.40;;;;;;;20.23;64.15;101435.25;3603511;39;20286;-58
2022/10/28 08:29:14;;;;;;;9.45;4.47;;;;;;;20.15;63.98;101438.72;3612684;39;20377;-58
2022/10/28 08:31:40;;;;;;;14.75;4.95;;;;;;;20.05;64.37;101434.25;3611686;39;20549;-58
2022/10/28 08:34:06;;;;;;;10.63;4.30;;;;;;;19.99;65.78;101435.69;3613701;39;20127;-58
2022/10/28 08:36:33;;;;;;;13.48;4.38;;;;;;;19.82;65.66;101415.41;3614103;39;20091;-59
2022/10/28 08:39:00;;;;;;;12.07;4.13;;;;;;;19.88;65.92;101438.50;3612100;39;20123;-59
2022/10/28 08:41:37;;;;;;;12.82;4.63;;;;;;;19.94;66.06;101440.69;3612110;39;20046;-59
2022/10/28 08:44:36;;;;;;;13.18;4.57;;;;;;;19.97;65.36;101434.09;3613581;39;20059;-59
2022/10/28 08:47:25;;;;;;;10.15;4.35;;;;;;;20.07;65.62;101424.91;3613517;39;20115;-60
2022/10/28 08:50:02;;;;;;;14.32;4.35;;;;;;;20.23;66.07;101420.75;3612603;39;20142;-60
2022/10/28 08:52:41;;;;;;;12.45;4.47;;;;;;;20.39;65.00;101421.03;3617156;39;20051;-59
2022/10/28 08:55:29;;;;;;;16.95;5.50;;;;;;;20.58;64.33;101417.44;3610723;39;20812;-62
2022/10/28 08:58:03;;;;;;;13.75;4.57;;;;;;;20.81;64.40;101427.06;3610566;39;20083;-60
2022/10/28 09:00:33;;;;;;;16.75;5.00;;;;;;;20.98;62.87;101432.78;3614329;39;20293;-59
2022/10/28 09:03:23;;;;;;;6.82;3.92;;;;;;;21.13;62.49;101435.91;3614555;39;20135;-60
2022/10/28 09:06:01;;;;;;;9.15;3.92;;;;;;;21.19;62.15;101435.31;3613041;39;20718;-60
2022/10/28 09:08:34;;;;;;;11.57;4.00;;;;;;;21.29;61.27;101444.34;3614799;39;20062;-60
2022/10/28 09:11:29;;;;;;;14.10;4.40;;;;;;;21.33;61.14;101440.28;3613155;39;20050;-60
2022/10/28 09:14:30;;;;;;;18.20;4.30;;;;;;;21.36;61.28;101450.97;3613081;39;20123;-60
2022/10/28 09:17:27;;;;;;;11.48;4.22;;;;;;;21.47;61.32;101448.06;3613414;39;20059;-60
2022/10/28 09:20:19;;;;;;;9.55;4.15;;;;;;;21.55;60.40;101456.34;3597837;39;20083;-60
2022/10/28 09:23:04;;;;;;;11.50;4.00;;;;;;;21.66;60.59;101455.31;3613863;39;20059;-60
2022/10/28 09:26:19;;;;;;;13.23;4.43;;;;;;;21.81;59.78;101457.53;3600000;39;20060;-59
2022/10/28 09:29:41;;;;;;;12.20;4.15;;;;;;;21.94;60.39;101445.19;3605878;39;20120;-60
2022/10/28 09:32:58;;;;;;;13.68;4.82;;;;;;;21.94;59.77;101452.53;3613561;39;20055;-60
2022/10/28 09:35:33;;;;;;;14.30;4.50;;;;;;;21.86;59.56;101456.06;3580299;39;20124;-60
2022/10/28 09:38:25;;;;;;;10.10;3.97;;;;;;;21.82;59.98;101459.22;3613063;39;20094;-59
2022/10/28 09:41:14;;;;;;;15.77;4.20;;;;;;;21.68;59.88;101438.72;3612493;39;20062;-60
2022/10/28 09:43:52;;;;;;;10.85;3.72;;;;;;;21.78;60.33;101458.69;3613882;39;20043;-59
2022/10/28 09:46:22;;;;;;;13.90;4.30;;;;;;;21.89;60.33;101463.09;3610081;39;20082;-60
2022/10/28 09:48:54;;;;;;;14.13;4.00;;;;;;;21.99;59.53;101463.91;3603709;39;20045;-60
2022/10/28 09:51:43;;;;;;;14.48;4.22;;;;;;;22.10;59.00;101465.56;3613447;39;20401;-59
2022/10/28 09:54:12;;;;;;;14.10;4.25;;;;;;;22.24;58.31;101467.81;3611657;39;20086;-58
2022/10/28 09:56:40;;;;;;;14.25;3.80;;;;;;;22.41;58.62;101453.25;3612861;39;20116;-59
2022/10/28 09:59:10;;;;;;;13.23;3.55;;;;;;;22.52;57.60;101448.53;3607367;39;20069;-60
2022/10/28 10:01:40;;;;;;;9.02;4.15;;;;;;;22.80;56.70;101458.34;3603008;39;20355;-59
2022/10/28 10:04:27;;;;;;;13.68;4.35;;;;;;;23.05;56.51;101456.69;3611165;39;20059;-61
2022/10/28 10:07:06;;;;;;;14.93;4.22;;;;;;;23.10;55.54;101442.50;3613969;39;20408;-59
2022/10/28 10:09:35;;;;;;;13.05;3.88;;;;;;;23.35;55.55;101454.50;3614487;39;20063;-60
2022/10/28 10:12:08;;;;;;;14.00;4.35;;;;;;;23.42;55.09;101463.78;3613830;39;20429;-59
2022/10/28 10:14:57;;;;;;;13.05;4.55;;;;;;;23.43;54.59;101461.91;3613454;39;20050;-61
2022/10/28 10:17:41;;;;;;;12.80;3.78;;;;;;;23.50;55.49;101461.09;3611564;39;20051;-60
2022/10/28 10:20:07;;;;;;;9.75;3.65;;;;;;;23.55;54.61;101466.09;3611043;39;20061;-59
2022/10/28 10:22:40;;;;;;;9.65;3.85;;;;;;;23.59;54.25;101464.72;3613359;39;20067;-59
2022/10/28 10:25:18;;;;;;;11.77;4.57;;;;;;;23.67;54.09;101452.94;3611915;39;20095;-60
2022/10/28 10:28:00;;;;;;;8.00;3.58;;;;;;;23.80;53.12;101450.63;3614190;39;20046;-59
2022/10/28 10:30:33;;;;;;;10.25;3.45;;;;;;;23.92;52.64;101443.78;3613907;39;20115;-59
2022/10/28 10:33:01;;;;;;;10.82;3.53;;;;;;;24.07;53.73;101450.38;3613339;39;20065;-61
2022/10/28 10:35:35;;;;;;;15.43;4.00;;;;;;;24.30;52.34;101452.47;3613780;39;20051;-60
2022/10/28 10:38:05;;;;;;;21.05;4.63;;;;;;;24.37;52.38;101444.41;3611248;39;20067;-61
2022/10/28 10:40:48;;;;;;;12.77;3.72;;;;;;;24.33;51.68;101452.13;3613571;39;20054;-59
2022/10/28 10:43:16;;;;;;;10.93;3.55;;;;;;;24.37;51.30;101431.50;3613572;39;20054;-59
2022/10/28 10:45:52;;;;;;;11.13;3.55;;;;;;;24.48;50.26;101428.44;3613237;39;20057;-61
2022/10/28 10:48:18;;;;;;;11.00;3.70;;;;;;;24.64;50.32;101434.97;3614339;39;20043;-59
2022/10/28 10:50:49;;;;;;;12.85;4.10;;;;;;;24.80;49.31;101426.72;3612068;39;20132;-58
2022/10/28 10:53:32;;;;;;;13.00;4.00;;;;;;;24.90;49.18;101421.06;3601614;39;20091;-60
2022/10/28 10:56:03;;;;;;;10.55;3.35;;;;;;;24.99;49.47;101428.22;3610929;39;20056;-59
2022/10/28 10:58:35;;;;;;;13.25;3.80;;;;;;;25.18;49.21;101425.16;3611275;39;20047;-60
2022/10/28 11:01:06;;;;;;;12.70;3.47;;;;;;;25.31;48.83;101435.59;3613903;39;20469;-58
2022/10/28 11:03:52;;;;;;;12.35;3.75;;;;;;;25.19;48.42;101402.09;3613683;39;20058;-59
2022/10/28 11:06:25;;;;;;;14.57;4.00;;;;;;;25.46;48.27;101442.06;3615613;39;20059;-59
2022/10/28 11:09:33;;;;;;;11.35;3.75;;;;;;;25.58;47.89;101445.31;3614737;39;20059;-59
2022/10/28 11:12:00;;;;;;;11.88;4.00;;;;;;;25.68;46.90;101448.69;3612526;39;20065;-60
2022/10/28 11:14:30;;;;;;;11.10;3.55;;;;;;;25.46;47.43;101438.47;3614781;39;20043;-61
2022/10/28 11:16:59;;;;;;;8.52;3.20;;;;;;;25.29;47.12;101436.81;3614712;39;20050;-59
2022/10/28 11:19:35;;;;;;;17.02;4.03;;;;;;;25.08;47.76;101424.44;3614987;39;20058;-58
2022/10/28 11:22:25;;;;;;;12.43;3.83;;;;;;;24.84;48.20;101417.09;3613926;39;20097;-60
2022/10/28 11:25:28;;;;;;;14.27;3.50;;;;;;;24.71;49.75;101411.28;3613530;39;20042;-60
2022/10/28 11:28:00;;;;;;;14.20;4.07;;;;;;;24.69;48.45;101419.69;3611879;39;20065;-58
2022/10/28 11:31:24;;;;;;;13.50;3.70;;;;;;;24.65;49.60;101428.47;3613255;39;20103;-60
2022/10/28 11:34:18;;;;;;;12.15;3.70;;;;;;;24.57;47.96;101426.56;3613898;39;20057;-58
2022/10/28 11:37:18;;;;;;;12.45;3.42;;;;;;;24.50;49.21;101425.53;3612941;39;20055;-58
2022/10/28 11:40:53;;;;;;;12.50;3.83;;;;;;;24.44;49.38;101432.56;3602307;39;20079;-60
2022/10/28 11:43:46;;;;;;;17.98;3.85;;;;;;;24.37;48.83;101436.16;3586362;39;20158;-58
2022/10/28 11:46:52;;;;;;;16.20;3.70;;;;;;;24.31;50.29;101429.44;3611475;39;20047;-59
2022/10/28 11:49:51;;;;;;;14.02;3.75;;;;;;;24.28;49.68;101422.38;3611141;39;20047;-58